Terminal Aerodrome Forecast
Issued by NWS

Current Version | Previous Version | Text Only | Print | Product List | Glossary On
Versions: 1 2 3 4 5 6 7 8 9 10 11 12 13 14 15 16 17 18 19 20 21 22 23 24 25
628
FTUS46 KPDT 132019 AAA
TAFALW
TAF AMD
KALW 132019Z 1320/1418 23015KT P6SM BKN120
     FM132200 22015KT P6SM SCT050 OVC090
     FM140000 20011KT P6SM VCSH BKN050 OVC070
     FM140800 19011KT 6SM -RA OVC025=

USA.gov is the U.S. government's official web portal to all federal, state and local government web resources and services.